createdAt,value
2023-03-26T00:03:12.184Z,4.60
2023-03-26T00:08:16.602Z,2.90
2023-03-26T00:13:23.516Z,2.60
2023-03-26T00:18:30.332Z,2.00
2023-03-26T00:23:35.252Z,2.60
2023-03-26T00:28:38.468Z,3.40
2023-03-26T00:33:42.689Z,3.60
2023-03-26T00:38:47.186Z,3.50
2023-03-26T00:44:09.357Z,3.80
2023-03-26T00:49:14.840Z,2.50
2023-03-26T00:54:36.700Z,2.90
2023-03-26T00:59:39.463Z,2.10
2023-03-26T01:04:45.250Z,2.70
2023-03-26T01:09:50.493Z,2.40
2023-03-26T01:14:56.660Z,2.50
2023-03-26T01:20:26.817Z,3.40
2023-03-26T01:25:34.462Z,4.00
2023-03-26T01:30:42.693Z,3.90
2023-03-26T01:36:18.125Z,3.20
2023-03-26T01:41:45.138Z,3.40
2023-03-26T01:46:48.723Z,3.70
2023-03-26T01:51:51.348Z,3.40
2023-03-26T01:57:17.597Z,3.60
2023-03-26T02:02:42.859Z,3.70
2023-03-26T02:07:52.138Z,3.60
2023-03-26T02:12:54.799Z,3.50
2023-03-26T02:17:56.583Z,3.50
2023-03-26T02:22:59.956Z,3.20
2023-03-26T02:28:02.813Z,2.60
2023-03-26T02:33:04.880Z,3.00
2023-03-26T02:38:14.583Z,3.60
2023-03-26T02:43:17.072Z,3.30
2023-03-26T02:48:20.405Z,2.90
2023-03-26T02:53:30.915Z,2.60
2023-03-26T02:59:02.097Z,3.30
2023-03-26T03:04:04.531Z,2.80
2023-03-26T03:09:12.846Z,2.60
2023-03-26T03:14:35.020Z,2.60
2023-03-26T03:19:37.821Z,3.10
2023-03-26T03:24:39.990Z,2.20
2023-03-26T03:29:41.735Z,3.40
2023-03-26T03:35:18.979Z,2.80
2023-03-26T03:40:23.957Z,3.70
2023-03-26T03:45:26.936Z,2.50
2023-03-26T03:50:47.431Z,2.70
2023-03-26T03:56:02.000Z,2.80
2023-03-26T04:06:18.776Z,4.30
2023-03-26T04:11:23.947Z,3.50
2023-03-26T04:16:42.617Z,4.00
2023-03-26T04:21:44.644Z,3.60
2023-03-26T04:26:48.190Z,4.10
2023-03-26T04:31:58.670Z,3.20
2023-03-26T04:37:02.607Z,2.80
2023-03-26T04:42:12.044Z,2.80
2023-03-26T04:47:24.273Z,2.30
2023-03-26T04:52:26.379Z,2.70
2023-03-26T04:57:53.118Z,2.80
2023-03-26T05:03:15.791Z,2.30
2023-03-26T05:08:18.647Z,2.00
2023-03-26T05:13:20.862Z,2.90
2023-03-26T05:18:24.842Z,2.70
2023-03-26T05:23:27.964Z,2.10
2023-03-26T05:28:40.594Z,2.20
2023-03-26T05:34:11.575Z,2.00
2023-03-26T05:39:14.296Z,1.70
2023-03-26T05:50:07.650Z,1.40
2023-03-26T05:55:11.340Z,1.50
2023-03-26T06:00:43.348Z,1.60
2023-03-26T06:05:46.792Z,2.00
2023-03-26T06:11:04.588Z,2.70
2023-03-26T06:16:27.319Z,1.60
2023-03-26T06:21:50.498Z,1.90
2023-03-26T06:26:56.601Z,1.80
2023-03-26T06:32:06.407Z,1.90
2023-03-26T06:37:22.848Z,1.80
2023-03-26T06:43:06.689Z,5.60
2023-03-26T06:48:17.475Z,3.90
2023-03-26T06:53:30.962Z,3.70
2023-03-26T06:58:45.908Z,4.40
2023-03-26T07:04:06.190Z,3.70
2023-03-26T07:09:30.345Z,3.10
2023-03-26T07:14:55.941Z,2.10
2023-03-26T07:20:16.922Z,3.10
2023-03-26T07:25:20.503Z,4.00
2023-03-26T07:30:55.446Z,4.00
2023-03-26T07:36:29.585Z,3.40
2023-03-26T07:42:23.451Z,4.30
2023-03-26T07:47:45.238Z,2.70
2023-03-26T07:52:53.943Z,2.90
2023-03-26T07:59:03.597Z,3.70
2023-03-26T08:04:50.995Z,3.30
2023-03-26T08:11:07.536Z,2.70
2023-03-26T08:16:45.662Z,2.80
2023-03-26T08:22:02.176Z,2.90
2023-03-26T08:27:21.852Z,2.80
2023-03-26T08:32:25.436Z,3.10
2023-03-26T08:37:27.840Z,1.70
2023-03-26T08:42:45.333Z,3.10
2023-03-26T08:48:03.354Z,4.40
2023-03-26T08:53:17.657Z,2.30
2023-03-26T08:58:36.436Z,2.50
2023-03-26T09:04:03.091Z,5.20
2023-03-26T09:09:33.073Z,3.20
2023-03-26T09:14:53.164Z,3.90
2023-03-26T09:20:25.227Z,2.70
2023-03-26T09:25:51.729Z,3.20
2023-03-26T09:31:11.943Z,1.50
2023-03-26T09:36:32.122Z,1.50
2023-03-26T09:41:53.705Z,1.40
2023-03-26T09:47:07.454Z,2.30
2023-03-26T09:52:35.642Z,2.10
2023-03-26T09:57:59.305Z,2.90
2023-03-26T10:03:58.926Z,1.80
2023-03-26T10:09:29.785Z,1.60
2023-03-26T10:15:16.687Z,1.20
2023-03-26T10:20:43.113Z,1.20
2023-03-26T10:26:09.607Z,1.10
2023-03-26T10:31:47.354Z,1.80
2023-03-26T10:37:04.089Z,1.50
2023-03-26T10:42:38.574Z,1.60
2023-03-26T10:48:11.358Z,1.50
2023-03-26T10:53:33.517Z,1.60
2023-03-26T10:58:49.306Z,1.60
2023-03-26T11:04:14.231Z,1.10
2023-03-26T11:09:46.740Z,1.50
2023-03-26T11:15:03.858Z,1.30
2023-03-26T11:20:17.466Z,1.40
2023-03-26T11:25:51.402Z,1.20
2023-03-26T11:31:13.028Z,1.80
2023-03-26T11:36:22.822Z,1.20
2023-03-26T11:41:27.565Z,1.10
2023-03-26T11:46:40.005Z,1.70
2023-03-26T11:51:43.883Z,1.10
2023-03-26T11:57:05.410Z,1.10
2023-03-26T12:02:11.534Z,1.20
2023-03-26T12:07:17.443Z,0.70
2023-03-26T12:12:20.374Z,0.70
2023-03-26T12:17:34.741Z,0.70
2023-03-26T12:22:38.699Z,0.60
2023-03-26T12:27:50.541Z,1.30
2023-03-26T12:32:57.797Z,1.60
2023-03-26T12:38:14.818Z,0.90
2023-03-26T12:44:54.770Z,1.30
2023-03-26T12:48:53.816Z,1.30
2023-03-26T12:54:23.815Z,1.30
2023-03-26T13:00:09.397Z,2.30
2023-03-26T13:05:17.897Z,3.60
2023-03-26T13:10:50.809Z,3.30
2023-03-26T13:15:57.795Z,2.50
2023-03-26T13:21:11.312Z,1.80
2023-03-26T13:27:00.306Z,1.50
2023-03-26T13:32:24.105Z,1.60
2023-03-26T13:37:36.446Z,1.40
2023-03-26T13:43:04.636Z,2.10
2023-03-26T13:48:18.167Z,1.40
2023-03-26T13:53:27.495Z,1.20
2023-03-26T13:58:41.823Z,1.40
2023-03-26T14:04:00.264Z,1.20
2023-03-26T14:09:12.711Z,1.70
2023-03-26T14:14:23.545Z,2.10
2023-03-26T14:20:02.400Z,3.30
2023-03-26T14:25:39.218Z,1.50
2023-03-26T14:30:56.558Z,1.60
2023-03-26T14:36:14.979Z,2.00
2023-03-26T14:41:33.139Z,1.40
2023-03-26T14:46:40.970Z,1.30
2023-03-26T14:52:05.856Z,2.20
2023-03-26T14:57:33.180Z,1.80
2023-03-26T15:03:09.933Z,1.70
2023-03-26T15:08:40.629Z,2.60
2023-03-26T15:14:16.589Z,2.10
2023-03-26T15:19:41.786Z,2.30
2023-03-26T15:25:12.735Z,2.50
2023-03-26T15:30:30.611Z,3.00
2023-03-26T15:36:00.505Z,2.20
2023-03-26T15:41:05.475Z,3.00
2023-03-26T15:46:26.348Z,1.80
2023-03-26T15:51:59.005Z,1.70
2023-03-26T15:57:16.725Z,1.80
2023-03-26T16:03:16.345Z,4.60
2023-03-26T16:08:25.935Z,4.60
2023-03-26T16:13:30.802Z,12.30
2023-03-26T16:18:37.283Z,22.20
2023-03-26T16:23:47.566Z,13.60
2023-03-26T16:28:53.627Z,10.10
2023-03-26T16:34:09.287Z,7.20
2023-03-26T16:39:18.784Z,12.40
2023-03-26T16:44:37.956Z,9.50
2023-03-26T16:50:08.888Z,7.90
2023-03-26T16:55:39.371Z,8.00
2023-03-26T17:00:48.197Z,10.80
2023-03-26T17:06:02.203Z,10.30
2023-03-26T17:11:57.658Z,12.10
2023-03-26T17:17:36.897Z,11.00
2023-03-26T17:22:45.151Z,6.30
2023-03-26T17:28:28.642Z,5.70
2023-03-26T17:33:38.777Z,4.10
2023-03-26T17:38:40.605Z,6.10
2023-03-26T17:43:51.905Z,4.70
2023-03-26T17:49:06.832Z,5.00
2023-03-26T17:54:27.473Z,4.90
2023-03-26T17:59:29.387Z,7.10
2023-03-26T18:04:39.032Z,4.00
2023-03-26T18:10:18.723Z,4.00
2023-03-26T18:15:32.450Z,3.20
2023-03-26T18:20:37.160Z,2.50
2023-03-26T18:25:41.087Z,5.20
2023-03-26T18:30:48.425Z,7.20
2023-03-26T18:35:54.421Z,14.00
2023-03-26T18:40:56.540Z,12.00
2023-03-26T18:45:58.662Z,12.30
2023-03-26T18:51:05.032Z,28.90
2023-03-26T18:56:28.549Z,18.60
2023-03-26T19:01:34.181Z,16.50
2023-03-26T19:06:41.378Z,15.80
2023-03-26T19:11:45.316Z,7.80
2023-03-26T19:16:56.515Z,10.50
2023-03-26T19:21:59.647Z,12.80
2023-03-26T19:27:02.685Z,17.30
2023-03-26T19:32:29.488Z,15.60
2023-03-26T19:37:32.410Z,17.30
2023-03-26T19:42:43.100Z,26.10
2023-03-26T19:48:00.072Z,20.10
2023-03-26T19:53:22.456Z,26.60
2023-03-26T19:58:26.585Z,26.00
2023-03-26T20:03:36.954Z,29.70
2023-03-26T20:08:40.663Z,25.80
2023-03-26T20:13:42.528Z,22.80
2023-03-26T20:18:44.265Z,22.40
2023-03-26T20:23:46.138Z,23.00
2023-03-26T20:28:52.713Z,30.40
2023-03-26T20:33:56.536Z,30.40
2023-03-26T20:38:58.301Z,23.10
2023-03-26T20:44:00.085Z,29.90
2023-03-26T20:49:01.803Z,15.10
2023-03-26T20:54:05.274Z,9.50
2023-03-26T20:59:10.927Z,13.70
2023-03-26T21:04:14.608Z,8.10
2023-03-26T21:09:23.960Z,8.90
2023-03-26T21:14:41.188Z,10.60
2023-03-26T21:19:43.871Z,12.60
2023-03-26T21:25:03.506Z,9.00
2023-03-26T21:30:16.471Z,8.50
2023-03-26T21:35:19.105Z,11.80
2023-03-26T21:40:21.144Z,10.60
2023-03-26T21:45:43.918Z,11.00
2023-03-26T21:50:48.949Z,13.10
2023-03-26T21:56:17.548Z,18.90
2023-03-26T22:01:24.332Z,20.80
2023-03-26T22:06:37.102Z,18.00
2023-03-26T22:11:41.536Z,22.20
2023-03-26T22:16:43.307Z,17.20
2023-03-26T22:21:45.109Z,23.70
2023-03-26T22:26:47.643Z,23.20
2023-03-26T22:31:49.469Z,21.30
2023-03-26T22:36:52.233Z,21.60
2023-03-26T22:41:54.643Z,24.80
2023-03-26T22:46:57.031Z,27.10
2023-03-26T22:51:58.700Z,27.20
2023-03-26T22:57:00.713Z,24.20
2023-03-26T23:02:02.882Z,21.00
2023-03-26T23:07:05.905Z,32.00
2023-03-26T23:12:08.510Z,22.60
2023-03-26T23:17:14.740Z,17.30
2023-03-26T23:22:17.263Z,15.70
2023-03-26T23:27:22.467Z,16.20
2023-03-26T23:32:28.243Z,15.00
2023-03-26T23:37:35.026Z,14.80
2023-03-26T23:42:38.037Z,12.10
2023-03-26T23:47:42.894Z,10.00
2023-03-26T23:52:47.031Z,13.40
2023-03-26T23:57:48.987Z,13.20
